createdAt,value
2023-03-01T00:02:25.705Z,69.20
2023-03-01T00:05:52.904Z,71.70
2023-03-01T00:09:20.278Z,71.10
2023-03-01T00:12:47.713Z,69.10
2023-03-01T00:16:18.326Z,68.20
2023-03-01T00:19:45.564Z,65.30
2023-03-01T00:23:12.798Z,59.60
2023-03-01T00:26:40.305Z,57.10
2023-03-01T00:30:09.717Z,56.00
2023-03-01T00:37:06.727Z,52.70
2023-03-01T00:40:37.116Z,89.20
2023-03-01T00:44:04.557Z,100.90
2023-03-01T00:47:33.744Z,83.10
2023-03-01T00:51:05.879Z,68.40
2023-03-01T00:54:33.259Z,91.00
2023-03-01T00:58:00.387Z,75.40
2023-03-01T01:01:31.626Z,89.50
2023-03-01T01:04:59.439Z,74.90
2023-03-01T01:08:26.611Z,78.50
2023-03-01T01:11:54.467Z,79.00
2023-03-01T01:15:21.829Z,72.10
2023-03-01T01:18:49.269Z,78.50
2023-03-01T01:22:16.389Z,81.60
2023-03-01T01:25:44.353Z,82.00
2023-03-01T01:29:11.966Z,82.30
2023-03-01T01:32:39.250Z,84.70
2023-03-01T01:36:10.624Z,89.80
2023-03-01T01:39:38.003Z,92.30
2023-03-01T01:43:05.297Z,83.20
2023-03-01T01:46:35.099Z,78.60
2023-03-01T01:50:03.232Z,70.90
2023-03-01T01:53:30.944Z,67.60
2023-03-01T01:57:02.562Z,66.10
2023-03-01T02:00:31.447Z,69.10
2023-03-01T02:03:58.929Z,65.20
2023-03-01T02:07:27.996Z,86.80
2023-03-01T02:10:56.879Z,101.60
2023-03-01T02:14:24.189Z,82.10
2023-03-01T02:17:51.543Z,78.90
2023-03-01T02:21:32.623Z,75.90
2023-03-01T02:25:11.630Z,77.70
2023-03-01T02:28:41.345Z,82.40
2023-03-01T02:32:09.248Z,80.00
2023-03-01T02:35:40.000Z,89.30
2023-03-01T02:39:15.258Z,104.20
2023-03-01T02:42:49.744Z,94.50
2023-03-01T02:46:21.198Z,82.50
2023-03-01T02:49:48.487Z,78.10
2023-03-01T02:53:18.908Z,76.50
2023-03-01T02:56:49.833Z,85.70
2023-03-01T03:00:23.318Z,91.10
2023-03-01T03:03:51.126Z,87.00
2023-03-01T03:07:18.743Z,101.60
2023-03-01T03:10:46.649Z,87.00
2023-03-01T03:14:16.097Z,89.80
2023-03-01T03:17:46.575Z,85.80
2023-03-01T03:21:15.547Z,86.20
2023-03-01T03:24:42.895Z,84.00
2023-03-01T03:28:11.627Z,85.20
2023-03-01T03:31:38.887Z,74.60
2023-03-01T03:35:10.447Z,76.30
2023-03-01T03:38:37.621Z,85.80
2023-03-01T03:42:04.911Z,81.90
2023-03-01T03:45:34.382Z,83.10
2023-03-01T03:49:01.601Z,85.00
2023-03-01T03:52:28.721Z,82.10
2023-03-01T03:55:56.276Z,86.60
2023-03-01T03:59:23.473Z,94.10
2023-03-01T04:02:51.094Z,91.70
2023-03-01T04:06:18.761Z,81.60
2023-03-01T04:09:46.059Z,69.10
2023-03-01T04:13:16.035Z,68.70
2023-03-01T04:16:43.324Z,67.40
2023-03-01T04:20:13.248Z,70.20
2023-03-01T04:23:41.861Z,64.50
2023-03-01T04:27:09.019Z,67.00
2023-03-01T04:30:38.707Z,67.20
2023-03-01T04:34:15.164Z,60.60
2023-03-01T04:37:42.731Z,65.40
2023-03-01T04:41:11.786Z,62.20
2023-03-01T04:44:38.861Z,67.30
2023-03-01T04:48:06.857Z,65.90
2023-03-01T04:51:34.624Z,67.60
2023-03-01T04:55:01.857Z,70.10
2023-03-01T04:58:30.759Z,65.20
2023-03-01T05:01:59.041Z,67.40
2023-03-01T05:05:28.251Z,59.60
2023-03-01T05:08:55.382Z,51.20
2023-03-01T05:12:22.674Z,55.90
2023-03-01T05:15:51.141Z,51.20
2023-03-01T05:19:23.926Z,54.20
2023-03-01T05:22:51.221Z,52.70
2023-03-01T05:26:28.370Z,51.20
2023-03-01T05:29:56.097Z,49.30
2023-03-01T05:33:23.272Z,54.80
2023-03-01T05:36:52.282Z,57.20
2023-03-01T05:40:22.564Z,55.20
2023-03-01T05:43:49.627Z,55.70
2023-03-01T05:47:16.674Z,57.90
2023-03-01T05:50:45.717Z,58.30
2023-03-01T05:54:13.215Z,56.20
2023-03-01T05:57:40.342Z,60.30
2023-03-01T06:01:08.103Z,62.00
2023-03-01T06:04:35.178Z,63.30
2023-03-01T06:08:04.982Z,64.50
2023-03-01T06:11:32.594Z,67.70
2023-03-01T06:14:59.671Z,61.40
2023-03-01T06:18:26.838Z,77.70
2023-03-01T06:21:53.885Z,78.50
2023-03-01T06:25:23.441Z,77.30
2023-03-01T06:28:50.564Z,86.50
2023-03-01T06:32:17.725Z,96.70
2023-03-01T06:35:45.233Z,96.20
2023-03-01T06:39:12.465Z,94.40
2023-03-01T06:42:40.535Z,91.90
2023-03-01T06:46:09.691Z,89.50
2023-03-01T06:49:36.774Z,82.10
2023-03-01T06:53:04.625Z,76.30
2023-03-01T06:56:31.968Z,70.40
2023-03-01T06:59:59.730Z,67.40
2023-03-01T07:03:27.281Z,66.40
2023-03-01T07:06:56.325Z,66.00
2023-03-01T07:10:23.636Z,105.80
2023-03-01T07:13:50.802Z,83.80
2023-03-01T07:17:17.924Z,179.60
2023-03-01T07:20:45.193Z,171.50
2023-03-01T07:24:12.581Z,217.30
2023-03-01T07:27:39.792Z,120.60
2023-03-01T07:31:07.607Z,86.00
2023-03-01T07:34:35.048Z,67.40
2023-03-01T07:38:02.224Z,63.10
2023-03-01T07:41:29.664Z,63.20
2023-03-01T07:44:56.924Z,63.70
2023-03-01T07:48:24.153Z,60.30
2023-03-01T07:51:51.286Z,58.30
2023-03-01T07:55:19.103Z,55.70
2023-03-01T07:58:49.824Z,52.10
2023-03-01T08:02:18.061Z,58.10
2023-03-01T08:05:45.360Z,52.50
2023-03-01T08:09:12.744Z,51.10
2023-03-01T08:12:40.066Z,50.70
2023-03-01T08:16:09.467Z,47.50
2023-03-01T08:19:36.919Z,46.30
2023-03-01T08:23:04.030Z,49.10
2023-03-01T08:26:31.522Z,46.30
2023-03-01T08:29:58.993Z,46.60
2023-03-01T08:33:26.501Z,44.00
2023-03-01T08:36:53.850Z,46.20
2023-03-01T08:40:21.615Z,45.00
2023-03-01T08:43:48.743Z,43.20
2023-03-01T08:47:16.045Z,42.50
2023-03-01T08:50:43.411Z,43.20
2023-03-01T08:54:13.972Z,42.30
2023-03-01T08:57:41.090Z,42.80
2023-03-01T09:01:13.372Z,44.80
2023-03-01T09:04:40.573Z,42.90
2023-03-01T09:08:09.997Z,41.20
2023-03-01T09:11:37.713Z,35.00
2023-03-01T09:15:05.353Z,28.60
2023-03-01T09:18:32.858Z,24.00
2023-03-01T09:22:00.123Z,21.40
2023-03-01T09:25:27.418Z,15.30
2023-03-01T09:28:56.123Z,17.80
2023-03-01T09:32:23.569Z,15.10
2023-03-01T09:35:50.882Z,13.70
2023-03-01T09:39:18.884Z,15.00
2023-03-01T09:42:55.290Z,15.50
2023-03-01T09:46:24.471Z,14.90
2023-03-01T09:50:04.314Z,15.20
2023-03-01T09:57:20.637Z,15.10
2023-03-01T10:00:52.135Z,13.80
2023-03-01T10:04:39.361Z,12.90
2023-03-01T10:08:37.544Z,13.40
2023-03-01T10:12:11.251Z,12.70
2023-03-01T10:15:43.144Z,12.60
2023-03-01T10:19:25.270Z,12.70
2023-03-01T10:22:53.543Z,12.50
2023-03-01T10:26:37.354Z,12.90
2023-03-01T10:30:17.222Z,11.60
2023-03-01T10:37:16.109Z,11.00
2023-03-01T10:40:56.159Z,11.40
2023-03-01T10:44:48.154Z,9.60
2023-03-01T10:48:20.650Z,11.10
2023-03-01T10:51:50.029Z,11.30
2023-03-01T10:55:30.094Z,13.40
2023-03-01T10:59:05.438Z,12.40
2023-03-01T11:02:37.168Z,11.10
2023-03-01T11:06:22.833Z,14.50
2023-03-01T11:09:50.132Z,17.20
2023-03-01T11:13:21.307Z,21.70
2023-03-01T11:16:51.142Z,23.00
2023-03-01T11:20:29.057Z,16.10
2023-03-01T11:23:56.666Z,12.20
2023-03-01T11:27:27.449Z,12.30
2023-03-01T11:31:08.247Z,11.90
2023-03-01T11:34:46.942Z,12.00
2023-03-01T11:38:27.422Z,11.50
2023-03-01T11:42:18.255Z,12.40
2023-03-01T11:45:59.241Z,10.80
2023-03-01T11:49:50.213Z,11.50
2023-03-01T11:53:39.438Z,10.20
2023-03-01T11:57:16.191Z,10.20
2023-03-01T12:01:02.728Z,11.00
2023-03-01T12:05:08.707Z,11.40
2023-03-01T12:08:43.834Z,31.40
2023-03-01T12:12:40.702Z,15.00
2023-03-01T12:16:36.020Z,11.40
2023-03-01T12:20:16.814Z,10.40
2023-03-01T12:24:03.266Z,9.10
2023-03-01T12:27:55.655Z,11.90
2023-03-01T12:31:51.048Z,11.80
2023-03-01T12:35:56.415Z,14.00
2023-03-01T12:39:38.962Z,13.80
2023-03-01T12:43:28.655Z,9.70
2023-03-01T12:50:39.572Z,9.40
2023-03-01T12:54:16.667Z,8.80
2023-03-01T12:57:48.448Z,8.90
2023-03-01T13:01:25.274Z,9.30
2023-03-01T13:05:19.586Z,9.60
2023-03-01T13:08:52.036Z,9.00
2023-03-01T13:12:54.941Z,9.10
2023-03-01T13:16:39.785Z,8.90
2023-03-01T13:20:18.979Z,8.00
2023-03-01T13:23:51.650Z,8.40
2023-03-01T13:27:30.432Z,7.40
2023-03-01T13:30:57.796Z,9.40
2023-03-01T13:34:55.560Z,9.30
2023-03-01T13:38:48.030Z,8.50
2023-03-01T13:42:42.149Z,9.30
2023-03-01T13:46:19.151Z,8.10
2023-03-01T13:49:51.180Z,9.50
2023-03-01T13:53:21.958Z,8.30
2023-03-01T13:56:49.323Z,8.60
2023-03-01T14:00:37.237Z,8.80
2023-03-01T14:04:05.824Z,8.10
2023-03-01T14:07:33.021Z,10.70
2023-03-01T14:11:27.330Z,10.60
2023-03-01T14:15:02.309Z,9.20
2023-03-01T14:18:35.821Z,8.70
2023-03-01T14:22:14.884Z,13.40
2023-03-01T14:25:48.872Z,37.50
2023-03-01T14:29:29.945Z,8.30
2023-03-01T14:32:59.141Z,31.10
2023-03-01T14:36:30.858Z,41.60
2023-03-01T14:39:59.916Z,199.40
2023-03-01T14:43:28.041Z,58.70
2023-03-01T14:46:59.059Z,246.30
2023-03-01T14:50:29.429Z,112.90
2023-03-01T14:53:57.679Z,61.40
2023-03-01T14:57:27.573Z,10.80
2023-03-01T15:04:23.764Z,8.60
2023-03-01T15:07:51.857Z,8.40
2023-03-01T15:11:25.916Z,8.00
2023-03-01T15:15:03.214Z,7.10
2023-03-01T15:18:33.601Z,6.50
2023-03-01T15:22:00.877Z,9.70
2023-03-01T15:25:30.641Z,8.10
2023-03-01T15:32:32.849Z,7.80
2023-03-01T15:36:02.061Z,7.80
2023-03-01T15:39:44.335Z,7.60
2023-03-01T15:43:48.616Z,7.80
2023-03-01T15:47:33.870Z,9.40
2023-03-01T15:51:02.567Z,9.90
2023-03-01T15:54:31.155Z,9.70
2023-03-01T15:58:07.628Z,10.40
2023-03-01T16:01:35.832Z,11.10
2023-03-01T16:05:03.015Z,12.90
2023-03-01T16:08:30.308Z,23.00
2023-03-01T16:11:57.814Z,16.50
2023-03-01T16:15:27.207Z,24.60
2023-03-01T16:18:55.726Z,27.20
2023-03-01T16:22:26.215Z,18.30
2023-03-01T16:25:53.686Z,19.60
2023-03-01T16:29:20.936Z,11.90
2023-03-01T16:32:50.435Z,11.90
2023-03-01T16:36:18.727Z,11.10
2023-03-01T16:39:46.008Z,11.20
2023-03-01T16:43:13.830Z,10.30
2023-03-01T16:46:44.115Z,10.50
2023-03-01T16:50:13.130Z,11.10
2023-03-01T16:53:41.940Z,10.40
2023-03-01T16:57:08.981Z,11.60
2023-03-01T17:00:37.361Z,11.90
2023-03-01T17:04:05.456Z,14.30
2023-03-01T17:07:34.355Z,14.10
2023-03-01T17:11:08.613Z,16.80
2023-03-01T17:14:35.738Z,20.70
2023-03-01T17:18:03.873Z,26.70
2023-03-01T17:21:31.841Z,32.00
2023-03-01T17:24:59.249Z,29.20
2023-03-01T17:28:28.480Z,30.80
2023-03-01T17:31:56.742Z,32.80
2023-03-01T17:35:24.613Z,33.00
2023-03-01T17:38:52.771Z,34.70
2023-03-01T17:42:20.050Z,30.20
2023-03-01T17:45:50.710Z,31.30
2023-03-01T17:49:18.438Z,31.70
2023-03-01T17:52:45.953Z,31.90
2023-03-01T17:56:14.172Z,31.30
2023-03-01T17:59:41.977Z,29.70
2023-03-01T18:03:09.747Z,46.50
2023-03-01T18:06:38.988Z,69.50
2023-03-01T18:10:07.751Z,44.10
2023-03-01T18:13:34.854Z,30.60
2023-03-01T18:17:06.535Z,40.90
2023-03-01T18:20:34.732Z,38.20
2023-03-01T18:24:02.424Z,37.40
2023-03-01T18:27:31.234Z,35.00
2023-03-01T18:31:04.102Z,38.30
2023-03-01T18:34:31.805Z,40.30
2023-03-01T18:37:58.870Z,50.90
2023-03-01T18:41:27.538Z,51.10
2023-03-01T18:44:55.039Z,42.10
2023-03-01T18:48:22.266Z,33.30
2023-03-01T18:51:51.047Z,32.80
2023-03-01T18:55:18.717Z,25.20
2023-03-01T18:58:46.383Z,24.70
2023-03-01T19:02:15.891Z,22.60
2023-03-01T19:05:46.218Z,22.90
2023-03-01T19:09:15.264Z,25.90
2023-03-01T19:12:42.605Z,28.20
2023-03-01T19:16:11.686Z,34.20
2023-03-01T19:19:39.885Z,34.80
2023-03-01T19:23:07.013Z,36.00
2023-03-01T19:26:35.219Z,36.60
2023-03-01T19:30:02.721Z,37.70
2023-03-01T19:33:31.030Z,38.20
2023-03-01T19:36:58.124Z,38.90
2023-03-01T19:40:25.349Z,38.00
2023-03-01T19:43:52.443Z,39.00
2023-03-01T19:47:19.745Z,40.00
2023-03-01T19:50:47.483Z,42.20
2023-03-01T19:54:19.913Z,43.20
2023-03-01T19:57:47.120Z,41.40
2023-03-01T20:01:20.928Z,43.00
2023-03-01T20:04:48.026Z,48.70
2023-03-01T20:08:15.227Z,52.50
2023-03-01T20:11:42.560Z,55.60
2023-03-01T20:15:11.749Z,57.20
2023-03-01T20:18:39.242Z,48.50
2023-03-01T20:22:06.450Z,61.40
2023-03-01T20:25:36.003Z,65.20
2023-03-01T20:29:03.097Z,62.50
2023-03-01T20:32:30.352Z,63.60
2023-03-01T20:35:57.548Z,56.40
2023-03-01T20:39:24.868Z,58.00
2023-03-01T20:42:52.129Z,63.50
2023-03-01T20:46:19.237Z,69.00
2023-03-01T20:49:46.425Z,74.50
2023-03-01T20:53:13.648Z,65.90
2023-03-01T20:56:41.020Z,75.50
2023-03-01T21:00:10.838Z,68.40
2023-03-01T21:03:38.529Z,68.00
2023-03-01T21:07:05.620Z,60.90
2023-03-01T21:10:33.743Z,64.80
2023-03-01T21:14:01.678Z,58.90
2023-03-01T21:17:29.105Z,57.30
2023-03-01T21:20:56.558Z,60.90
2023-03-01T21:24:23.864Z,65.40
2023-03-01T21:27:51.038Z,66.40
2023-03-01T21:31:19.597Z,66.50
2023-03-01T21:34:48.203Z,75.80
2023-03-01T21:38:15.325Z,81.00
2023-03-01T21:41:42.416Z,81.10
2023-03-01T21:45:10.953Z,88.90
2023-03-01T21:48:39.955Z,87.60
2023-03-01T21:52:08.576Z,81.50
2023-03-01T21:55:35.796Z,79.40
2023-03-01T21:59:03.577Z,75.60
2023-03-01T22:02:32.141Z,74.40
2023-03-01T22:06:00.813Z,75.90
2023-03-01T22:09:28.119Z,80.00
2023-03-01T22:12:55.775Z,79.40
2023-03-01T22:16:24.980Z,77.50
2023-03-01T22:19:52.210Z,78.20
2023-03-01T22:23:19.484Z,79.60
2023-03-01T22:26:48.569Z,75.50
2023-03-01T22:30:16.867Z,79.40
2023-03-01T22:33:44.070Z,77.20
2023-03-01T22:37:11.163Z,74.10
2023-03-01T22:40:39.219Z,71.00
2023-03-01T22:44:08.217Z,72.20
2023-03-01T22:47:37.552Z,72.30
2023-03-01T22:51:04.856Z,66.20
2023-03-01T22:54:32.244Z,63.00
2023-03-01T22:57:59.346Z,66.10
2023-03-01T23:01:28.867Z,65.00
2023-03-01T23:04:56.461Z,61.60
2023-03-01T23:08:23.759Z,65.80
2023-03-01T23:11:52.076Z,63.00
2023-03-01T23:15:19.500Z,59.80
2023-03-01T23:18:47.220Z,60.20
2023-03-01T23:22:14.347Z,61.40
2023-03-01T23:25:41.712Z,63.00
2023-03-01T23:29:09.382Z,66.70
2023-03-01T23:32:40.385Z,68.90
2023-03-01T23:36:09.386Z,87.90
2023-03-01T23:39:36.687Z,80.60
2023-03-01T23:43:04.455Z,80.50
2023-03-01T23:46:34.682Z,75.90
2023-03-01T23:50:02.145Z,72.50
2023-03-01T23:53:30.642Z,71.80
2023-03-01T23:56:57.873Z,71.00
